Tiempo atmosférico en la estación meteorológica de Barbate, Cádiz (4 m.)



Fecha
DESCASC
Temp. máxima en grados centígrados (hora)
DESCASC
Temp. mínima en grados centígrados (hora)
DESCASC
Temp. media en grados centígrados
DESCASC
Racha de viento máxima en m/sg (hora)
DESCASC
Velocidad máxima media en intervalos de 10 minutos(hora)
DESCASC
Precipitaciones diarias en mm
DESCASC
Precipitaciones de 00:00 a 06:00 en mm
DESCASC
Precipitaciones de 06:00 a 12:00 en mm
DESCASC
Precipitaciones de 12:00 a 18:00 en mm
DESCASC
Precipitaciones de 18:00 a 24:00 en mm
DESCASC
15-07-2018 23.5 (18:30) 17.5 (05:40) 20.5 11.39 (18:10) 8.89 (17:50) 0 0 0 0 0
14-07-2018 25.7 (18:40) 17 (07:10) 21.4 10 (16:20) 6.67 (16:00) 0 0 0 0 0
13-07-2018 26.4 (18:50) 20.4 (07:00) 23.4 10 (02:20) 7.5 (01:50) 0 0 0 0 0
12-07-2018 25.9 (18:50) 20.1 (00:00) 23 7.22 (09:40) 5.56 (13:10) 0 0 0 0 0
11-07-2018 23.8 (18:50) 20 (00:00) 21.9 8.06 (17:10) 6.39 (13:00) 0 0 0 0 0
10-07-2018 26.1 (17:10) 20.7 (00:00) 23.4 8.61 (06:40) 7.22 (06:20) 0 0 0 0 0
09-07-2018 31.7 (20:20) 20.7 (00:00) 26.2 8.33 (17:30) 6.94 (17:30) 0 0 0 0 0
08-07-2018 29.6 (18:50) 20.8 (07:20) 25.2 8.33 (10:30) 6.11 (17:10) 0 0 0 0 0
07-07-2018 33.6 (16:20) 19.4 (00:00) 26.5 8.61 (15:40) 5.56 (18:10) 0 0 0 0 0
06-07-2018 31.1 (18:50) 16.7 (00:00) 23.9 6.94 (16:50) 5.83 (17:20) 0 0 0 0 0
05-07-2018 28.9 (18:50) 16.4 (07:00) 22.6 11.11 (15:30) 9.44 (15:50) 0 0 0 0 0
04-07-2018 23.4 (18:50) 17.5 (07:00) 20.4 11.67 (19:10) 9.17 (15:30) 0 0 0 0 0
03-07-2018 26.3 (19:50) 16.6 (08:00) 21.4 9.72 (15:00) 8.33 (15:30) 0 0 0 0 0
02-07-2018 25.2 (19:30) 17.4 (07:30) 21.3 10.28 (16:50) 8.33 (17:10) 0 0 0 0 0
01-07-2018 24.4 (16:30) 19.1 (00:00) 21.8 8.89 (17:50) 7.22 (18:20) 0 0 0 0 0
30-06-2018 27.7 (18:50) 16.8 (06:00) 22.3 6.39 (12:50) 5.28 (12:50) 0 0 0 0 0
29-06-2018 23.8 (13:50) 19.3 (00:00) 21.5 8.33 (18:50) 7.22 (18:50) 0 0 0 0 0
28-06-2018 24.8 (16:20) 19.8 (00:00) 22.3 8.33 (08:40) 6.94 (08:40) 0 0 0 0 0
27-06-2018 26.3 (18:40) 19.9 (00:00) 23.1 9.17 (17:30) 6.94 (17:30) 0 0 0 0 0
26-06-2018 24.8 (15:40) 18.4 (00:00) 21.6 8.06 (19:00) 6.67 (19:10) 0 0 0 0 0
25-06-2018 24.4 (18:50) 20.1 (00:00) 22.3 7.5 (14:20) 6.39 (14:20) 0 0 0 0 0
24-06-2018 26.1 (15:00) 20.4 (00:00) 23.3 11.67 (15:10) 9.44 (15:10) 0 0 0 0 0
23-06-2018 30.8 (16:00) 17.7 (00:00) 24.3 14.44 (17:40) 9.44 (17:40) 0 0 0 0 0
22-06-2018 26.8 (20:00) 18.7 (07:40) 22.8 8.33 (00:30) 6.94 (00:50) 0.4 0.4 0 0 0
21-06-2018 29 (18:00) 19.9 (00:00) 24.4 14.72 (06:20) 9.72 (06:20) 2.4 2.2 0.2 0 0
20-06-2018 29.1 (16:00) 20.9 (00:00) 25 21.11 (00:20) 13.33 (00:10) 0 0 0 0 0
19-06-2018 -- (--) -- (--) -- -- (--) -- (--) 0 0 0 0 0
18-06-2018 29.9 (17:00) 21.5 (00:00) 25.7 15 (13:50) 10.56 (14:50) 0 0 0 0 0
17-06-2018 31.8 (16:50) 17 (00:00) 24.4 14.17 (13:50) 9.17 (18:10) 0 0 0 0 0

Gráficas

Temp. máximas Temp. mínimas Temp. medias Precipitaciones Rachas de viento máximas Velocidades máximas media en intervalos de 10 minutos

Datos horarios

Fecha y hora oficial Temperatura (ºC) Velocidad del viento (km/h) Dirección del viento Racha (km/h) Dirección de racha Precipitación (mm) Presión (hPa) Tendencia (hPa) Humedad (%)
2018-07-16 23:00:00 21.6 6 Oeste 13 Noroeste 0 -- -- 82
2018-07-16 22:00:00 22.8 8 Noroeste 17 Noroeste 0 -- -- 76
2018-07-16 21:00:00 25.7 12 Noroeste 20 Noroeste 0 -- -- 65
2018-07-16 20:00:00 26.5 9 Oeste 23 Noroeste 0 -- -- 62
2018-07-16 19:00:00 27.9 13 Noroeste 26 Noroeste 0 -- -- 57
2018-07-16 18:00:00 27.1 17 Noroeste 29 Oeste 0 -- -- 60
2018-07-16 17:00:00 23.9 22 Oeste 28 Oeste 0 -- -- 76
2018-07-16 16:00:00 23.1 23 Oeste 33 Oeste 0 -- -- 77
2018-07-16 15:00:00 23 24 Oeste 32 Sudoeste 0 -- -- 80
2018-07-16 14:00:00 22.9 24 Oeste 29 Oeste 0 -- -- 78
2018-07-16 13:00:00 22.7 22 Oeste 27 Oeste 0 -- -- 81
2018-07-16 12:00:00 22.2 21 Sudoeste 26 Sudoeste 0 -- -- 85
2018-07-16 11:00:00 21.9 13 Sudoeste 18 Sudoeste 0 -- -- 86
2018-07-16 10:00:00 21.2 8 Sudoeste 10 Sur 0 -- -- 87
2018-07-16 09:00:00 20.1 4 Este 6 Este 0 -- -- 90
2018-07-16 08:00:00 18.1 0 Calma 8 Oeste 0 -- -- 95
2018-07-16 07:00:00 18.5 6 Oeste 10 Sudoeste 0 -- -- 96
2018-07-16 06:00:00 18.9 4 Oeste 10 Sur 0 -- -- 96
2018-07-16 05:00:00 19.1 3 Sur 12 Sudoeste 0 -- -- 95
2018-07-16 04:00:00 19.3 8 Sudoeste 13 Sudoeste 0 -- -- 95
2018-07-16 03:00:00 19.5 9 Sur 14 Sudoeste 0 -- -- 94
2018-07-16 02:00:00 19.9 6 Sur 15 Noroeste 0 -- -- 92
2018-07-16 01:00:00 20.3 7 Oeste 14 Noroeste 0 -- -- 89
2018-07-16 00:00:00 20.4 0 Calma 19 Noroeste 0 -- -- 88
2018-07-15 23:00:00 20.6 8 Oeste 18 Oeste 0 -- -- 86
2018-07-15 22:00:00 21 7 Noroeste 18 Sudoeste 0 -- -- 82
2018-07-15 21:00:00 22.1 14 Oeste 31 Oeste 0 -- -- 78
2018-07-15 20:00:00 22 24 Oeste 37 Oeste 0 -- -- 80
2018-07-15 19:00:00 22.6 27 Oeste 41 Oeste 0 -- -- 77
2018-07-15 18:00:00 22.4 32 Oeste 41 Oeste 0 -- -- 77
2018-07-15 17:00:00 22.6 28 Oeste 34 Oeste 0 -- -- 79
2018-07-15 16:00:00 22.6 27 Oeste 35 Oeste 0 -- -- 77
2018-07-15 15:00:00 22.7 24 Oeste 33 Oeste 0 -- -- 74
2018-07-15 14:00:00 22.3 24 Oeste 32 Oeste 0 -- -- 79
2018-07-15 13:00:00 22.4 24 Sudoeste 31 Sudoeste 0 -- -- 80
2018-07-15 12:00:00 21.6 24 Oeste 30 Oeste 0 -- -- 80
2018-07-15 11:00:00 21.1 19 Oeste 27 Oeste 0 -- -- 80
2018-07-15 10:00:00 20.8 12 Oeste 19 Oeste 0 -- -- 80
2018-07-15 09:00:00 19 4 Oeste 13 Noroeste 0 -- -- 91
2018-07-15 08:00:00 18.5 8 Noroeste 12 Oeste 0 -- -- 91
2018-07-15 07:00:00 18.7 11 Oeste 20 Noroeste 0 -- -- 90
2018-07-15 06:00:00 17.9 7 Noroeste 13 Noroeste 0 -- -- 91
2018-07-15 05:00:00 17.8 7 Norte 12 Noroeste 0 -- -- 89
2018-07-15 04:00:00 18.2 3 Norte 10 Norte 0 -- -- 88
2018-07-15 03:00:00 18.4 4 Norte 10 Noroeste 0 -- -- 87
2018-07-15 02:00:00 19.4 9 Noroeste 17 Noroeste 0 -- -- 84
2018-07-15 01:00:00 19.7 6 Oeste 14 Noroeste 0 -- -- 85
2018-07-15 00:00:00 20 10 Noroeste 15 Noroeste 0 -- -- 83
2018-07-14 23:00:00 20.1 9 Oeste 15 Oeste 0 -- -- 81
2018-07-14 22:00:00 20.9 10 Oeste 19 Oeste 0 -- -- 78
2018-07-14 21:00:00 22.7 14 Noroeste 24 Oeste 0 -- -- 70
2018-07-14 20:00:00 23.6 16 Oeste 31 Oeste 0 -- -- 69
2018-07-14 19:00:00 24.8 20 Noroeste 29 Oeste 0 -- -- 59
2018-07-14 18:00:00 25.1 20 Noroeste 31 Oeste 0 -- -- 59
2018-07-14 17:00:00 25.3 18 Noroeste 36 Oeste 0 -- -- 60
2018-07-14 16:00:00 23.5 24 Oeste 30 Oeste 0 -- -- 77
2018-07-14 15:00:00 23.3 22 Sudoeste 26 Oeste 0 -- -- 77
2018-07-14 14:00:00 22.7 21 Oeste 25 Oeste 0 -- -- 77
2018-07-14 13:00:00 22.6 17 Oeste 21 Oeste 0 -- -- 81
2018-07-14 12:00:00 23 11 Sudoeste 14 Sudoeste 0 -- -- 81
2018-07-14 11:00:00 22.4 7 Sudoeste 10 Sudoeste 0 -- -- 88
2018-07-14 10:00:00 20.6 3 Sur 9 Nordeste 0 -- -- 98
2018-07-14 09:00:00 17.9 5 Norte 8 Norte 0 -- -- 100
2018-07-14 08:00:00 17.3 5 Norte 10 Norte 0 -- -- 99
2018-07-14 07:00:00 17.1 6 Norte 10 Norte 0 -- -- 97
2018-07-14 06:00:00 17.4 5 Norte 8 Norte 0 -- -- 96
2018-07-14 05:00:00 17.8 5 Norte 9 Norte 0 -- -- 96
2018-07-14 04:00:00 18 4 Norte 7 Norte 0 -- -- 95
2018-07-14 03:00:00 19.2 0 Calma -- -- 0 -- -- 94
2018-07-14 02:00:00 19.2 0 Calma 4 Oeste 0 -- -- 93
2018-07-14 01:00:00 20.2 0 Calma 8 Sudoeste 0 -- -- 92
2018-07-14 00:00:00 20.6 6 Sudoeste 10 Sudoeste 0 -- -- 91
2018-07-13 23:00:00 20.9 8 Oeste 12 Sudoeste 0 -- -- 90
2018-07-13 22:00:00 21.6 9 Sudoeste 16 Oeste 0 -- -- 86
2018-07-13 21:00:00 23.3 15 Oeste 18 Sudoeste 0 -- -- 81
2018-07-13 20:00:00 24.3 15 Sudoeste 18 Sudoeste 0 -- -- 76
2018-07-13 19:00:00 25.3 15 Sudoeste 18 Sudoeste 0 -- -- 71
2018-07-13 18:00:00 24.8 14 Oeste 17 Oeste 0 -- -- 72
2018-07-13 17:00:00 23.8 14 Oeste 21 Oeste 0 -- -- 76
2018-07-13 16:00:00 24.2 17 Oeste 23 Oeste 0 -- -- 73
2018-07-13 15:00:00 24.6 17 Sudoeste 22 Sudoeste 0 -- -- 73
2018-07-13 14:00:00 24.6 17 Sudoeste 23 Sudoeste 0 -- -- 73
2018-07-13 13:00:00 24 18 Sudoeste 24 Sudoeste 0 -- -- 74
2018-07-13 12:00:00 23.2 9 Sur 10 Sur 0 -- -- 70
2018-07-13 11:00:00 21.4 8 Oeste 12 Oeste 0 -- -- 74
2018-07-13 10:00:00 21 10 Oeste 22 Sudoeste 0 -- -- 77
2018-07-13 09:00:00 20.7 18 Sudoeste 26 Sudoeste 0 -- -- 80
2018-07-13 08:00:00 20.5 17 Sudoeste 24 Oeste 0 -- -- 83
2018-07-13 07:00:00 20.4 13 Oeste 23 Oeste 0 -- -- 86
2018-07-13 06:00:00 20.8 19 Sudoeste 24 Sudoeste 0 -- -- 85
2018-07-13 05:00:00 20.7 18 Sudoeste 23 Sudoeste 0 -- -- 83
2018-07-13 04:00:00 20.9 19 Sudoeste 33 Oeste 0 -- -- 81
2018-07-13 03:00:00 20.9 23 Sudoeste 36 Sudoeste 0 -- -- 79
2018-07-13 02:00:00 20.7 21 Sudoeste 35 Sudoeste 0 -- -- 82
2018-07-13 01:00:00 20.9 21 Sudoeste 26 Sudoeste 0 -- -- 87
2018-07-13 00:00:00 20.8 15 Sudoeste 20 Sudoeste 0 -- -- 88
2018-07-12 23:00:00 21 14 Sudoeste 17 Sudoeste 0 -- -- 88
2018-07-12 22:00:00 21.6 10 Sudoeste 14 Sudoeste 0 -- -- 85
2018-07-12 21:00:00 23.3 11 Sudoeste 18 Sudoeste 0 -- -- 77
2018-07-12 20:00:00 24.9 13 Sudoeste 19 Sudoeste 0 -- -- 73
2018-07-12 19:00:00 25 14 Oeste 18 Oeste 0 -- -- 72
2018-07-12 18:00:00 25.5 12 Oeste 15 Oeste 0 -- -- 72
2018-07-12 17:00:00 25.3 10 Oeste 14 Sudoeste 0 -- -- 73
2018-07-12 16:00:00 25.7 13 Sudoeste 21 Sudoeste 0 -- -- 74
2018-07-12 15:00:00 24.5 15 Sudoeste 21 Sudoeste 0 -- -- 76
2018-07-12 14:00:00 24.7 17 Sudoeste 25 Sudoeste 0 -- -- 75
2018-07-12 13:00:00 24.2 18 Sudoeste 22 Sudoeste 0 -- -- 77
2018-07-12 12:00:00 23.2 12 Sudoeste 21 Sudoeste 0 -- -- 80
2018-07-12 11:00:00 22.4 16 Sudoeste 23 Sudoeste 0 -- -- 80
2018-07-12 10:00:00 21.3 19 Oeste 26 Sudoeste 0 -- -- 84
2018-07-12 09:00:00 20.6 16 Sudoeste 20 Sudoeste 0 -- -- 87
2018-07-12 08:00:00 20.2 15 Sudoeste 19 Sudoeste 0 -- -- 87
2018-07-12 07:00:00 20.4 15 Sudoeste 22 Sudoeste 0 -- -- 86
2018-07-12 06:00:00 20.5 14 Sudoeste 20 Sudoeste 0 -- -- 87
2018-07-12 05:00:00 20.5 16 Sudoeste 23 Sudoeste 0 -- -- 84
2018-07-12 04:00:00 20.5 16 Sudoeste 24 Oeste 0 -- -- 85
2018-07-12 03:00:00 20.5 15 Sudoeste 21 Sudoeste 0 -- -- 86
2018-07-12 02:00:00 20.3 16 Sudoeste 23 Oeste 0 -- -- 87
2018-07-12 01:00:00 20.2 16 Sudoeste 24 Oeste 0 -- -- 87
2018-07-12 00:00:00 20.2 11 Oeste 19 Oeste 0 -- -- 87
2018-07-11 23:00:00 20.1 10 Noroeste 17 Oeste 0 -- -- 86
2018-07-11 22:00:00 20.2 12 Oeste 19 Oeste 0 -- -- 87
2018-07-11 21:00:00 21.2 12 Oeste 22 Oeste 0 -- -- 83
2018-07-11 20:00:00 22.7 19 Oeste 24 Oeste 0 -- -- 79
2018-07-11 19:00:00 23.3 21 Oeste 27 Oeste 0 -- -- 76
2018-07-11 18:00:00 23.4 22 Oeste 29 Oeste 0 -- -- 76
2018-07-11 17:00:00 23.1 22 Oeste 29 Oeste 0 -- -- 76
2018-07-11 16:00:00 22.9 19 Oeste 23 Oeste 0 -- -- 78
2018-07-11 15:00:00 22.5 19 Oeste 26 Oeste 0 -- -- 77
2018-07-11 14:00:00 22.3 20 Oeste 28 Oeste 0 -- -- 80
2018-07-11 13:00:00 22.1 23 Oeste 28 Sudoeste 0 -- -- 81
2018-07-11 12:00:00 21.8 20 Sudoeste 27 Oeste 0 -- -- 83
2018-07-11 11:00:00 21.4 20 Oeste 26 Oeste 0 -- -- 86
2018-07-11 10:00:00 21 20 Sudoeste 26 Sudoeste 0 -- -- 88
2018-07-11 09:00:00 20.7 19 Oeste 24 Sudoeste 0 -- -- 89
2018-07-11 08:00:00 20.4 18 Sudoeste 23 Sudoeste 0 -- -- 91
2018-07-11 07:00:00 20.3 18 Sudoeste 23 Sudoeste 0 -- -- 91
2018-07-11 06:00:00 20.2 16 Sudoeste 21 Oeste 0 -- -- 92
2018-07-11 05:00:00 20.1 13 Sudoeste 18 Sudoeste 0 -- -- 93
2018-07-11 04:00:00 20 9 Sudoeste 12 Sudoeste 0 -- -- 92
2018-07-11 03:00:00 20.4 8 Oeste 19 Oeste 0 -- -- 90
2018-07-11 02:00:00 20.6 13 Oeste 18 Oeste 0 -- -- 91
2018-07-11 01:00:00 20.8 12 Oeste 15 Oeste 0 -- -- 91
2018-07-11 00:00:00 20.7 8 Oeste 17 Oeste 0 -- -- 90
2018-07-10 23:00:00 20.8 10 Oeste 21 Oeste 0 -- -- 91
2018-07-10 22:00:00 20.9 14 Oeste 21 Sudoeste 0 -- -- 92
2018-07-10 21:00:00 21.6 17 Oeste 23 Oeste 0 -- -- 86
2018-07-10 20:00:00 23.7 15 Oeste 23 Sudoeste 0 -- -- 79
2018-07-10 19:00:00 24.5 16 Oeste 27 Oeste 0 -- -- 76
2018-07-10 18:00:00 24.9 19 Sudoeste 23 Sudoeste 0 -- -- 76
2018-07-10 17:00:00 25.9 13 Sudoeste 18 Sudoeste 0 -- -- 72
2018-07-10 16:00:00 23.9 15 Oeste 25 Sudoeste 0 -- -- 78
2018-07-10 15:00:00 23.4 17 Sudoeste 25 Oeste 0 -- -- 80
2018-07-10 14:00:00 23.2 21 Oeste 27 Oeste 0 -- -- 81
2018-07-10 13:00:00 23.5 19 Sudoeste 27 Sudoeste 0 -- -- 82
2018-07-10 12:00:00 23.5 16 Sudoeste 22 Sudoeste 0 -- -- 84
2018-07-10 11:00:00 22.6 18 Sudoeste 26 Sudoeste 0 -- -- 87
2018-07-10 10:00:00 22.1 20 Sudoeste 28 Sudoeste 0 -- -- 92
2018-07-10 09:00:00 21.4 23 Sudoeste 29 Sudoeste 0 -- -- 95
2018-07-10 08:00:00 21.3 19 Sudoeste 31 Sudoeste 0 -- -- 97
2018-07-10 07:00:00 20.9 25 Sudoeste 31 Sudoeste 0 -- -- 98
2018-07-10 06:00:00 21.2 22 Sudoeste 27 Sudoeste 0 -- -- 97
2018-07-10 05:00:00 21.5 20 Sudoeste 24 Sudoeste 0 -- -- 95
2018-07-10 04:00:00 22 15 Sudoeste 18 Sudoeste 0 -- -- 92
2018-07-10 03:00:00 22 2 Norte 7 Norte 0 -- -- 77
2018-07-10 02:00:00 22.5 4 Norte 9 Norte 0 -- -- 75
2018-07-10 01:00:00 23.4 6 Nordeste 11 Oeste 0 -- -- 73
2018-07-10 00:00:00 24.2 7 Noroeste 10 Noroeste 0 -- -- 71
2018-07-09 23:00:00 25.2 3 Norte 12 Noroeste 0 -- -- 68
2018-07-09 22:00:00 26.3 0 Calma 9 Oeste 0 -- -- 70
2018-07-09 21:00:00 28.1 9 Oeste 12 Oeste 0 -- -- 69
2018-07-09 20:00:00 31.2 6 Sudoeste 11 Sudoeste 0 -- -- 56
2018-07-09 19:00:00 29.4 9 Oeste 24 Oeste 0 -- -- 53
2018-07-09 18:00:00 27.1 22 Oeste 30 Oeste 0 -- -- 71
2018-07-09 17:00:00 26.3 23 Oeste 28 Oeste 0 -- -- 76
2018-07-09 16:00:00 25.3 20 Oeste 24 Oeste 0 -- -- 82
2018-07-09 15:00:00 26.2 17 Oeste 22 Sudoeste 0 -- -- 77
2018-07-09 14:00:00 26.2 18 Sudoeste 21 Sudoeste 0 -- -- 76
2018-07-09 13:00:00 25.8 16 Sudoeste 23 Sur 0 -- -- 77
2018-07-09 12:00:00 26 17 Sur 21 Sur 0 -- -- 77
2018-07-09 11:00:00 25.3 10 Sur 13 Sur 0 -- -- 79
2018-07-09 10:00:00 24 8 Oeste 10 Oeste 0 -- -- 82
2018-07-09 09:00:00 23.3 0 Calma 8 Norte 0 -- -- 83
2018-07-09 08:00:00 21.2 7 Norte 13 Norte 0 -- -- 90
2018-07-09 07:00:00 20.8 9 Norte 14 Nordeste 0 -- -- 90
2018-07-09 06:00:00 21.1 6 Norte 13 Norte 0 -- -- 88
2018-07-09 05:00:00 21.5 5 Norte 11 Norte 0 -- -- 87
2018-07-09 04:00:00 21.9 6 Norte 12 Norte 0 -- -- 85
2018-07-09 03:00:00 22.6 7 Norte 14 Nordeste 0 -- -- 85
2018-07-09 02:00:00 22.9 6 Norte 12 Norte 0 -- -- 84
2018-07-09 01:00:00 23.2 8 Norte 15 Nordeste 0 -- -- 82
2018-07-09 00:00:00 23.6 9 Norte 13 Norte 0 -- -- 79
2018-07-08 23:00:00 24.6 2 Sudoeste 5 Nordeste 0 -- -- 78
2018-07-08 22:00:00 26.3 4 Norte 11 Oeste 0 -- -- 70
2018-07-08 21:00:00 26.3 9 Oeste 20 Oeste 0 -- -- 76
2018-07-08 20:00:00 26.9 16 Oeste 22 Oeste 0 -- -- 74
2018-07-08 19:00:00 29.3 12 Sudoeste 26 Sur 0 -- -- 62
2018-07-08 18:00:00 28.6 20 Sur 28 Sur 0 -- -- 67
2018-07-08 17:00:00 28.6 22 Sur 30 Sur 0 -- -- 66
2018-07-08 16:00:00 29.1 21 Sur 27 Sur 0 -- -- 64
2018-07-08 15:00:00 28.3 15 Sur 24 Sur 0 -- -- 68
2018-07-08 14:00:00 28.1 14 Sur 24 Sur 0 -- -- 68
2018-07-08 13:00:00 27.3 15 Sur 21 Sur 0 -- -- 71
2018-07-08 12:00:00 26.4 14 Sur 18 Sur 0 -- -- 75
2018-07-08 11:00:00 26 8 Oeste 30 Este 0 -- -- 74
2018-07-08 10:00:00 26.7 10 Este 25 Este 0 -- -- 70
2018-07-08 09:00:00 24.3 9 Este 14 Este 0 -- -- 83
2018-07-08 08:00:00 21.5 11 Nordeste 14 Nordeste 0 -- -- 92
2018-07-08 07:00:00 21 9 Nordeste 15 Nordeste 0 -- -- 90
2018-07-08 06:00:00 21.3 3 Norte 8 Nordeste 0 -- -- 88
2018-07-08 05:00:00 21.7 3 Oeste 13 Este 0 -- -- 88
2018-07-08 04:00:00 21.6 11 Este 16 Este 0 -- -- 89
2018-07-08 03:00:00 21.9 15 Nordeste 22 Nordeste 0 -- -- 87
2018-07-08 02:00:00 22.2 13 Nordeste 26 Este 0 -- -- 85
2018-07-08 01:00:00 22.5 10 Nordeste 17 Este 0 -- -- 84
2018-07-08 00:00:00 22.9 7 Nordeste 13 Nordeste 0 -- -- 82
2018-07-07 23:00:00 22.9 4 Oeste 11 Oeste 0 -- -- 82
2018-07-07 22:00:00 23.4 12 Oeste 16 Oeste 0 -- -- 78
2018-07-07 21:00:00 25.2 9 Oeste 24 Oeste 0 -- -- 68
2018-07-07 20:00:00 25.5 17 Oeste 30 Oeste 0 -- -- 70
2018-07-07 19:00:00 32.6 19 Este 30 Este 0 -- -- 34
2018-07-07 18:00:00 33.3 19 Este 29 Este 0 -- -- 35
2018-07-07 17:00:00 33.1 9 Nordeste 25 Este 0 -- -- 45
2018-07-07 16:00:00 33.1 18 Este 31 Este 0 -- -- 35
2018-07-07 15:00:00 30.5 9 Este 24 Sudeste 0 -- -- 40
2018-07-07 14:00:00 25.7 15 Oeste 20 Oeste 0 -- -- 66
2018-07-07 13:00:00 25.1 13 Oeste 23 Este 0 -- -- 68
2018-07-07 12:00:00 30 19 Este 28 Este 0 -- -- 39
2018-07-07 11:00:00 28 15 Este 24 Este 0 -- -- 46
2018-07-07 10:00:00 25.6 17 Nordeste 26 Nordeste 0 -- -- 57
2018-07-07 09:00:00 22.8 15 Nordeste 24 Nordeste 0 -- -- 74
2018-07-07 08:00:00 19.8 11 Nordeste 18 Nordeste 0 -- -- 83
2018-07-07 07:00:00 19.7 6 Nordeste 14 Norte 0 -- -- 82
2018-07-07 06:00:00 20.2 8 Norte 23 Norte 0 -- -- 82
2018-07-07 05:00:00 20.4 11 Norte 22 Norte 0 -- -- 80
2018-07-07 04:00:00 20.6 13 Norte 23 Norte 0 -- -- 81
2018-07-07 03:00:00 20.7 12 Nordeste 22 Nordeste 0 -- -- 77
2018-07-07 02:00:00 20.2 12 Norte 17 Nordeste 0 -- -- 82
2018-07-07 01:00:00 20.5 0 Calma 9 Sur 0 -- -- 89
2018-07-07 00:00:00 21 9 Sur 17 Sur 0 -- -- 88
2018-07-06 23:00:00 21.7 4 Sur 10 Sudeste 0 -- -- 85
2018-07-06 22:00:00 22.4 10 Sudeste 23 Sudeste 0 -- -- 84
2018-07-06 21:00:00 25.7 17 Sudeste 23 Sudeste 0 -- -- 70
2018-07-06 20:00:00 30.6 10 Noroeste 23 Noroeste 0 -- -- 47
2018-07-06 19:00:00 30.9 14 Noroeste 22 Oeste 0 -- -- 48
2018-07-06 18:00:00 26.5 20 Oeste 25 Oeste 0 -- -- 71
2018-07-06 17:00:00 25.2 20 Oeste 25 Oeste 0 -- -- 76
2018-07-06 16:00:00 25.3 17 Sudoeste 21 Oeste 0 -- -- 78
2018-07-06 15:00:00 24.6 16 Sudoeste 19 Sudoeste 0 -- -- 79
2018-07-06 14:00:00 24.1 15 Oeste 18 Sudoeste 0 -- -- 82
2018-07-06 13:00:00 24.7 11 Sudoeste 14 Sur 0 -- -- 80
2018-07-06 12:00:00 23.9 12 Sur 14 Sur 0 -- -- 82
2018-07-06 11:00:00 23 12 Sur 17 Sur 0 -- -- 86
2018-07-06 10:00:00 21.6 4 Nordeste 10 Norte 0 -- -- 90
2018-07-06 09:00:00 18.7 6 Norte 11 Norte 0 -- -- 94
2018-07-06 08:00:00 17 5 Norte 8 Norte 0 -- -- 95
2018-07-06 07:00:00 16.8 5 Norte 6 Nordeste 0 -- -- 94
2018-07-06 06:00:00 17.4 0 Calma 3 Sudeste 0 -- -- 91
2018-07-06 05:00:00 19.5 2 Sudoeste 6 Sur 0 -- -- 93
2018-07-06 04:00:00 19.6 5 Sudoeste 10 Oeste 0 -- -- 93
2018-07-06 03:00:00 19.2 6 Oeste 9 Oeste 0 -- -- 88
2018-07-06 02:00:00 19.9 4 Oeste 7 Oeste 0 -- -- 86
2018-07-06 01:00:00 20 2 Nordeste 10 Este 0 -- -- 81
2018-07-06 00:00:00 20 7 Este 10 Este 0 -- -- 78
2018-07-05 23:00:00 21.1 8 Noroeste 13 Noroeste 0 -- -- 77
2018-07-05 22:00:00 22.1 9 Norte 23 Noroeste 0 -- -- 74
2018-07-05 21:00:00 25 15 Noroeste 24 Norte 0 -- -- 59
2018-07-05 20:00:00 26.7 17 Noroeste 32 Noroeste 0 -- -- 51
2018-07-05 19:00:00 28.1 19 Noroeste 28 Noroeste 0 -- -- 48
2018-07-05 18:00:00 27 19 Oeste 30 Oeste 0 -- -- 55
2018-07-05 17:00:00 24.6 24 Oeste 35 Oeste 0 -- -- 74
2018-07-05 16:00:00 23.1 31 Oeste 40 Oeste 0 -- -- 80
2018-07-05 15:00:00 22.9 31 Oeste 38 Oeste 0 -- -- 82
2018-07-05 14:00:00 23.2 27 Oeste 35 Oeste 0 -- -- 81
2018-07-05 13:00:00 23.3 18 Sudoeste 24 Sudoeste 0 -- -- 80
2018-07-05 12:00:00 22.2 18 Sudoeste 21 Sudoeste 0 -- -- 84
2018-07-05 11:00:00 21.3 9 Oeste 12 Oeste 0 -- -- 84
2018-07-05 10:00:00 21.2 4 Oeste 8 Sudoeste 0 -- -- 85
2018-07-05 09:00:00 19 0 Calma 4 Sudoeste 0 -- -- 97
2018-07-05 08:00:00 17.1 0 Calma 6 Norte 0 -- -- 98
2018-07-05 07:00:00 16.4 3 Norte 12 Norte 0 -- -- 97
2018-07-05 06:00:00 17.2 5 Norte 9 Norte 0 -- -- 97
2018-07-05 05:00:00 17.9 3 Nordeste 11 Sudoeste 0 -- -- 95
2018-07-05 04:00:00 19.5 10 Sur 13 Sudoeste 0 -- -- 96
2018-07-05 03:00:00 19.6 11 Sur 15 Sur 0 -- -- 96
2018-07-05 02:00:00 19.7 10 Sur 12 Sudoeste 0 -- -- 95
2018-07-05 01:00:00 19.8 9 Sur 15 Sur 0 -- -- 93
2018-07-05 00:00:00 20.1 9 Sur 13 Sudoeste 0 -- -- 90
2018-07-04 23:00:00 20.5 6 Oeste 26 Oeste 0 -- -- 84
2018-07-04 22:00:00 21.1 4 Sudeste 22 Noroeste 0 -- -- 81
2018-07-04 21:00:00 22.3 14 Oeste 31 Noroeste 0 -- -- 78
2018-07-04 20:00:00 23.3 20 Noroeste 42 Noroeste 0 -- -- 70
2018-07-04 19:00:00 23.2 26 Oeste 40 Oeste 0 -- -- 71
2018-07-04 18:00:00 22 31 Oeste 40 Oeste 0 -- -- 81
2018-07-04 17:00:00 22 31 Oeste 39 Oeste 0 -- -- 81
2018-07-04 16:00:00 22.1 31 Oeste 41 Oeste 0 -- -- 80
2018-07-04 15:00:00 22 29 Oeste 37 Oeste 0 -- -- 80
2018-07-04 14:00:00 22.7 24 Oeste 33 Oeste 0 -- -- 76
2018-07-04 13:00:00 22.1 25 Oeste 30 Oeste 0 -- -- 77
2018-07-04 12:00:00 21.8 22 Oeste 31 Oeste 0 -- -- 78
2018-07-04 11:00:00 21.6 18 Noroeste 29 Oeste 0 -- -- 76
2018-07-04 10:00:00 20.5 20 Oeste 33 Noroeste 0 -- -- 80
2018-07-04 09:00:00 19.3 7 Noroeste 20 Noroeste 0 -- -- 87
2018-07-04 08:00:00 18.1 5 Sudoeste 10 Sudoeste 0 -- -- 93
2018-07-04 07:00:00 17.5 5 Este 13 Noroeste 0 -- -- 90
2018-07-04 06:00:00 17.9 3 Sudeste 11 Norte 0 -- -- 91
2018-07-04 05:00:00 18.2 7 Nordeste 11 Nordeste 0 -- -- 93
2018-07-04 04:00:00 19.3 0 Calma 14 Oeste 0 -- -- 92
2018-07-04 03:00:00 19.5 9 Oeste 12 Oeste 0 -- -- 92
2018-07-04 02:00:00 19.6 4 Sudoeste 6 Sur 0 -- -- 91
2018-07-04 01:00:00 19.9 5 Sur 13 Oeste 0 -- -- 90
2018-07-04 00:00:00 20.3 6 Oeste 14 Oeste 0 -- -- 86
2018-07-03 23:00:00 20.8 0 Calma 19 Noroeste 0 -- -- 80
2018-07-03 22:00:00 21.8 6 Oeste 18 Oeste 0 -- -- 76
2018-07-03 21:00:00 24.2 10 Oeste 24 Noroeste 0 -- -- 70
2018-07-03 20:00:00 26.3 8 Oeste 27 Noroeste 0 -- -- 63
2018-07-03 19:00:00 25.9 17 Oeste 27 Oeste 0 -- -- 67
2018-07-03 18:00:00 24 23 Oeste 31 Oeste 0 -- -- 79
2018-07-03 17:00:00 23.9 25 Oeste 35 Oeste 0 -- -- 81
2018-07-03 16:00:00 23.6 28 Oeste 35 Oeste 0 -- -- 84
2018-07-03 15:00:00 23.2 30 Oeste 35 Oeste 0 -- -- 83
2018-07-03 14:00:00 23.2 27 Sudoeste 32 Oeste 0 -- -- 84
2018-07-03 13:00:00 22.8 24 Oeste 31 Oeste 0 -- -- 83
2018-07-03 12:00:00 22.1 15 Oeste 18 Oeste 0 -- -- 86
2018-07-03 11:00:00 22.6 6 Sudoeste 10 Sur 0 -- -- 88
2018-07-03 10:00:00 21.2 9 Sur 14 Sudeste 0 -- -- 94
2018-07-03 09:00:00 18.1 4 Nordeste 9 Norte 0 -- -- 98
2018-07-03 08:00:00 16.6 5 Nordeste 8 Norte 0 -- -- 98
2018-07-03 07:00:00 17.2 5 Norte 7 Norte 0 -- -- 98
2018-07-03 06:00:00 17.2 5 Nordeste 7 Nordeste 0 -- -- 97
2018-07-03 05:00:00 17.7 5 Norte 8 Norte 0 -- -- 95
2018-07-03 04:00:00 18.8 5 Este 6 Este 0 -- -- 95
2018-07-03 03:00:00 19.3 0 Calma 5 Nordeste 0 -- -- 94
2018-07-03 02:00:00 18.9 6 Nordeste 9 Nordeste 0 -- -- 93
2018-07-03 01:00:00 19.8 6 Norte 13 Norte 0 -- -- 91
2018-07-03 00:00:00 20.2 7 Norte 17 Noroeste 0 -- -- 89
2018-07-02 23:00:00 20.6 9 Norte 21 Norte 0 -- -- 85
2018-07-02 22:00:00 21.5 8 Noroeste 24 Noroeste 0 -- -- 74
2018-07-02 21:00:00 23.5 13 Noroeste 26 Noroeste 0 -- -- 64
2018-07-02 20:00:00 24.9 17 Noroeste 25 Noroeste 0 -- -- 64
2018-07-02 19:00:00 24.1 15 Oeste 32 Oeste 0 -- -- 69
2018-07-02 18:00:00 22.4 26 Oeste 36 Oeste 0 -- -- 83
2018-07-02 17:00:00 22.5 30 Oeste 37 Oeste 0 -- -- 84
2018-07-02 16:00:00 22.7 29 Oeste 34 Oeste 0 -- -- 83
2018-07-02 15:00:00 23.1 26 Oeste 32 Sudoeste 0 -- -- 82
2018-07-02 14:00:00 23.3 20 Sudoeste 25 Oeste 0 -- -- 84
2018-07-02 13:00:00 22.8 19 Oeste 23 Sudoeste 0 -- -- 83
2018-07-02 12:00:00 21.1 13 Oeste 19 Oeste 0 -- -- 88
2018-07-02 11:00:00 21.1 10 Sudoeste 15 Sudoeste 0 -- -- 89
2018-07-02 10:00:00 20.7 9 Sudoeste 12 Sudoeste 0 -- -- 89
2018-07-02 09:00:00 19.7 6 Oeste 9 Oeste 0 -- -- 92
2018-07-02 08:00:00 17.7 4 Norte 6 Nordeste 0 -- -- 96
2018-07-02 07:00:00 17.8 3 Norte 8 Noroeste 0 -- -- 94
2018-07-02 06:00:00 18.3 3 Norte 9 Noroeste 0 -- -- 94
2018-07-02 05:00:00 18.4 4 Norte 8 Noroeste 0 -- -- 95
2018-07-02 04:00:00 18.7 2 Norte 12 Noroeste 0 -- -- 93
2018-07-02 03:00:00 19.1 6 Noroeste 10 Noroeste 0 -- -- 92
2018-07-02 02:00:00 19.6 6 Noroeste 12 Noroeste 0 -- -- 92
2018-07-02 01:00:00 20 5 Oeste 13 Noroeste 0 -- -- 91
2018-07-02 00:00:00 20.1 6 Noroeste 13 Noroeste 0 -- -- 89
2018-07-01 23:00:00 20.3 6 Oeste 10 Noroeste 0 -- -- 88
2018-07-01 22:00:00 21 9 Oeste 18 Oeste 0 -- -- 88
2018-07-01 21:00:00 22.5 14 Oeste 23 Oeste 0 -- -- 79
2018-07-01 20:00:00 22.9 19 Oeste 27 Oeste 0 -- -- 79
2018-07-01 19:00:00 23.5 19 Oeste 31 Oeste 0 -- -- 80
2018-07-01 18:00:00 23.4 23 Oeste 32 Oeste 0 -- -- 80
2018-07-01 17:00:00 24 19 Oeste 25 Oeste 0 -- -- 76
2018-07-01 16:00:00 23.9 17 Oeste 20 Oeste 0 -- -- 78
2018-07-01 15:00:00 23.9 14 Oeste 20 Sudoeste 0 -- -- 79
2018-07-01 14:00:00 23.9 17 Sudoeste 20 Sudoeste 0 -- -- 78
2018-07-01 13:00:00 23.3 15 Sudoeste 21 Oeste 0 -- -- 80
2018-07-01 12:00:00 22.4 19 Oeste 22 Oeste 0 -- -- 83
2018-07-01 11:00:00 21.7 17 Sudoeste 22 Oeste 0 -- -- 86
2018-07-01 10:00:00 20.9 13 Oeste 16 Sudoeste 0 -- -- 88
2018-07-01 09:00:00 20.1 6 Oeste 9 Noroeste 0 -- -- 89
2018-07-01 08:00:00 19.4 4 Noroeste 8 Noroeste 0 -- -- 90
2018-07-01 07:00:00 19.2 2 Norte 9 Noroeste 0 -- -- 91
2018-07-01 06:00:00 19.6 5 Noroeste 14 Norte 0 -- -- 89
2018-07-01 05:00:00 19.7 9 Noroeste 15 Noroeste 0 -- -- 89
2018-07-01 04:00:00 19.7 5 Norte 15 Noroeste 0 -- -- 89
2018-07-01 03:00:00 20.1 8 Noroeste 14 Noroeste 0 -- -- 94
2018-07-01 02:00:00 20.2 8 Oeste 16 Oeste 0 -- -- 97
2018-07-01 01:00:00 20.5 12 Oeste 17 Oeste 0 -- -- 97
2018-07-01 00:00:00 20.8 13 Oeste 18 Sudoeste 0 -- -- 97
2018-06-30 23:00:00 21.2 15 Sudoeste 18 Sudoeste 0 -- -- 95
2018-06-30 22:00:00 22 9 Sudoeste 10 Sudoeste 0 -- -- 89
2018-06-30 21:00:00 24.7 7 Sur 10 Sudoeste 0 -- -- 80
2018-06-30 20:00:00 26.6 9 Sudoeste 13 Sudoeste 0 -- -- 74
2018-06-30 19:00:00 26.9 10 Sudoeste 13 Sudoeste 0 -- -- 71
2018-06-30 18:00:00 24.8 12 Oeste 19 Sudoeste 0 -- -- 78
2018-06-30 17:00:00 26 10 Sudoeste 15 Sudoeste 0 -- -- 74
2018-06-30 16:00:00 24.9 13 Sudoeste 17 Sudoeste 0 -- -- 79
2018-06-30 15:00:00 24.5 15 Sudoeste 18 Sudoeste 0 -- -- 78
2018-06-30 14:00:00 23.7 15 Sudoeste 22 Sudoeste 0 -- -- 81
2018-06-30 13:00:00 23.3 19 Sudoeste 23 Sudoeste 0 -- -- 83
2018-06-30 12:00:00 22.9 16 Sur 19 Sur 0 -- -- 85
2018-06-30 11:00:00 21.7 15 Sur 21 Sur 0 -- -- 90
2018-06-30 10:00:00 20.6 12 Sudeste 15 Sudeste 0 -- -- 92
2018-06-30 09:00:00 19.2 2 Sur 7 Norte 0 -- -- 95
2018-06-30 08:00:00 17.3 3 Norte 9 Nordeste 0 -- -- 96
2018-06-30 07:00:00 17 3 Norte 8 Norte 0 -- -- 96
2018-06-30 06:00:00 16.8 5 Norte 9 Norte 0 -- -- 95
2018-06-30 05:00:00 17 5 Norte 8 Norte 0 -- -- 94
2018-06-30 04:00:00 17.3 5 Norte 8 Norte 0 -- -- 93
2018-06-30 03:00:00 18 4 Nordeste 5 Nordeste 0 -- -- 91
2018-06-30 02:00:00 19.1 0 Calma 3 Oeste 0 -- -- 90
2018-06-30 01:00:00 19.3 3 Oeste 7 Oeste 0 -- -- 88
2018-06-30 00:00:00 19.7 5 Oeste 9 Oeste 0 -- -- 87
2018-06-29 23:00:00 20.1 6 Oeste 10 Oeste 0 -- -- 86
2018-06-29 22:00:00 20.7 6 Oeste 15 Oeste 0 -- -- 81
2018-06-29 21:00:00 22.4 12 Oeste 21 Oeste 0 -- -- 76
2018-06-29 20:00:00 23 16 Oeste 28 Oeste 0 -- -- 79
2018-06-29 19:00:00 22.3 24 Oeste 30 Oeste 0 -- -- 81
2018-06-29 18:00:00 22.9 24 Oeste 29 Oeste 0 -- -- 79
2018-06-29 17:00:00 23.1 24 Oeste 29 Sudoeste 0 -- -- 79
2018-06-29 16:00:00 23.6 19 Sudoeste 23 Sudoeste 0 -- -- 77
2018-06-29 15:00:00 23.6 16 Sudoeste 18 Sudoeste 0 -- -- 77
2018-06-29 14:00:00 23.8 12 Sudoeste 15 Sudoeste 0 -- -- 76
2018-06-29 13:00:00 23.7 10 Sudoeste 13 Sudoeste 0 -- -- 78
2018-06-29 12:00:00 23.3 9 Sudoeste 13 Sudoeste 0 -- -- 79
2018-06-29 11:00:00 22 11 Sudoeste 13 Sudoeste 0 -- -- 85
2018-06-29 10:00:00 21 13 Sudoeste 17 Sudoeste 0 -- -- 90
2018-06-29 09:00:00 20.1 14 Sudoeste 20 Sudoeste 0 -- -- 93
2018-06-29 08:00:00 19.4 15 Sudoeste 22 Sudoeste 0 -- -- 95
2018-06-29 07:00:00 19.3 19 Sudoeste 22 Sudoeste 0 -- -- 95
2018-06-29 06:00:00 19.5 18 Sudoeste 21 Sudoeste 0 -- -- 95
2018-06-29 05:00:00 19.3 17 Sudoeste 19 Sudoeste 0 -- -- 96
2018-06-29 04:00:00 19.3 14 Sudoeste 20 Sudoeste 0 -- -- 96
2018-06-29 03:00:00 19.4 14 Oeste 19 Oeste 0 -- -- 96
2018-06-29 02:00:00 19.6 17 Oeste 21 Sudoeste 0 -- -- 95
2018-06-29 01:00:00 19.8 15 Sudoeste 18 Sudoeste 0 -- -- 95
2018-06-29 00:00:00 19.8 7 Oeste 12 Sudoeste 0 -- -- 91
2018-06-28 23:00:00 20.1 4 Oeste 14 Oeste 0 -- -- 87
2018-06-28 22:00:00 20.7 9 Oeste 17 Noroeste 0 -- -- 84
2018-06-28 21:00:00 22.1 15 Oeste 27 Oeste 0 -- -- 84
2018-06-28 20:00:00 23 20 Oeste 26 Oeste 0 -- -- 83
2018-06-28 19:00:00 21.6 23 Oeste 30 Oeste 0 -- -- 82
2018-06-28 18:00:00 24 19 Sudoeste 22 Sudoeste 0 -- -- 75
2018-06-28 17:00:00 24.6 15 Sudoeste 19 Sudoeste 0 -- -- 75
2018-06-28 16:00:00 23.9 13 Sudoeste 18 Oeste 0 -- -- 78
2018-06-28 15:00:00 23.5 14 Oeste 18 Sudoeste 0 -- -- 81
2018-06-28 14:00:00 23.4 14 Sudoeste 18 Sudoeste 0 -- -- 84
2018-06-28 13:00:00 21.6 16 Sudoeste 24 Sudoeste 0 -- -- 90
2018-06-28 12:00:00 20.8 18 Sudoeste 26 Sudoeste 0 -- -- 91
2018-06-28 11:00:00 20.6 20 Sudoeste 27 Sudoeste 0 -- -- 91
2018-06-28 10:00:00 20.4 22 Sudoeste 28 Sudoeste 0 -- -- 93
2018-06-28 09:00:00 20.3 24 Sudoeste 30 Sudoeste 0 -- -- 93
2018-06-28 08:00:00 20.2 23 Sudoeste 28 Sudoeste 0 -- -- 95
2018-06-28 07:00:00 20.1 22 Sudoeste 29 Sudoeste 0 -- -- 95
2018-06-28 06:00:00 20.2 22 Sudoeste 27 Sudoeste 0 -- -- 95
2018-06-28 05:00:00 20.2 18 Sudoeste 26 Sudoeste 0 -- -- 96
2018-06-28 04:00:00 20.2 18 Sudoeste 22 Sudoeste 0 -- -- 96
2018-06-28 03:00:00 20 14 Sudoeste 17 Sudoeste 0 -- -- 96
2018-06-28 02:00:00 20 12 Sur 14 Sur 0 -- -- 95
2018-06-28 01:00:00 20 12 Sur 14 Sur 0 -- -- 93
2018-06-28 00:00:00 20.3 9 Sur 11 Sur 0 -- -- 90
2018-06-27 23:00:00 20.5 3 Oeste 12 Oeste 0 -- -- 86
2018-06-27 22:00:00 21.4 5 Oeste 21 Noroeste 0 -- -- 84
2018-06-27 21:00:00 23.4 15 Noroeste 22 Oeste 0 -- -- 71
2018-06-27 20:00:00 24.6 13 Oeste 29 Oeste 0 -- -- 65
2018-06-27 19:00:00 25.4 15 Oeste 32 Oeste 0 -- -- 68
2018-06-27 18:00:00 23 24 Oeste 33 Oeste 0 -- -- 79
2018-06-27 17:00:00 23.2 24 Oeste 28 Oeste 0 -- -- 80
2018-06-27 16:00:00 24 17 Sudoeste 21 Sudoeste 0 -- -- 78
2018-06-27 15:00:00 24.3 12 Sudoeste 21 Sudoeste 0 -- -- 77
2018-06-27 14:00:00 23.8 16 Sudoeste 21 Sudoeste 0 -- -- 77
2018-06-27 13:00:00 23 19 Sudoeste 24 Sudoeste 0 -- -- 81
2018-06-27 12:00:00 22.5 19 Sudoeste 24 Sudoeste 0 -- -- 83
2018-06-27 11:00:00 21.5 19 Sudoeste 24 Sudoeste 0 -- -- 88
2018-06-27 10:00:00 20.9 21 Sudoeste 25 Sudoeste 0 -- -- 91
2018-06-27 09:00:00 20.4 18 Sudoeste 23 Sudoeste 0 -- -- 93
2018-06-27 08:00:00 20 18 Sudoeste 22 Sudoeste 0 -- -- 94
2018-06-27 07:00:00 19.9 17 Sudoeste 22 Sudoeste 0 -- -- 94
2018-06-27 06:00:00 20 17 Sudoeste 21 Sudoeste 0 -- -- 95
2018-06-27 05:00:00 20 16 Sudoeste 19 Sudoeste 0 -- -- 96
2018-06-27 04:00:00 20 13 Sudoeste 17 Sudoeste 0 -- -- 96
2018-06-27 03:00:00 20 12 Sudoeste 14 Sudoeste 0 -- -- 95
2018-06-27 02:00:00 20 11 Sudoeste 14 Sudoeste 0 -- -- 94
2018-06-27 01:00:00 20.1 11 Sur 12 Sur 0 -- -- 93
2018-06-27 00:00:00 20.4 6 Sudoeste 9 Sudoeste 0 -- -- 90
2018-06-26 23:00:00 20.6 5 Oeste 10 Oeste 0 -- -- 88
2018-06-26 22:00:00 21 10 Oeste 23 Oeste 0 -- -- 88
2018-06-26 21:00:00 22 16 Oeste 24 Oeste 0 -- -- 85
2018-06-26 20:00:00 22.7 20 Oeste 29 Sudoeste 0 -- -- 83
2018-06-26 19:00:00 23.6 24 Oeste 29 Oeste 0 -- -- 80
2018-06-26 18:00:00 24.3 16 Sudoeste 22 Sudoeste 0 -- -- 79
2018-06-26 17:00:00 24.1 19 Sudoeste 23 Sudoeste 0 -- -- 77
2018-06-26 16:00:00 24.6 17 Sudoeste 23 Sudoeste 0 -- -- 76
2018-06-26 15:00:00 24.4 16 Sudoeste 21 Sudoeste 0 -- -- 75
2018-06-26 14:00:00 24.4 16 Sudoeste 20 Sudoeste 0 -- -- 73
2018-06-26 13:00:00 24.2 12 Sudoeste 14 Sudoeste 0 -- -- 75
2018-06-26 12:00:00 23.4 11 Sudoeste 15 Sudoeste 0 -- -- 76
2018-06-26 11:00:00 22.1 10 Sudoeste 14 Sudoeste 0 -- -- 83
2018-06-26 10:00:00 20.9 12 Sudoeste 15 Sudoeste 0 -- -- 88
2018-06-26 09:00:00 20.4 9 Sudoeste 11 Sudoeste 0 -- -- 90
2018-06-26 08:00:00 18.4 4 Norte 6 Nordeste 0 -- -- 92
2018-06-26 07:00:00 19.6 5 Sudoeste 12 Sudoeste 0 -- -- 91
2018-06-26 06:00:00 19.7 10 Sudoeste 15 Sudoeste 0 -- -- 90
2018-06-26 05:00:00 19.9 12 Sudoeste 18 Oeste 0 -- -- 89
2018-06-26 04:00:00 20.3 12 Oeste 15 Oeste 0 -- -- 87
2018-06-26 03:00:00 20.4 9 Sudoeste 13 Sudoeste 0 -- -- 88
2018-06-26 02:00:00 20.3 9 Oeste 14 Oeste 0 -- -- 88
2018-06-26 01:00:00 20.3 10 Oeste 15 Oeste 0 -- -- 88
2018-06-26 00:00:00 20.1 8 Oeste 15 Oeste 0 -- -- 89
2018-06-25 23:00:00 20.7 9 Oeste 13 Sudoeste 0 -- -- 91
2018-06-25 22:00:00 20.8 9 Oeste 17 Sudoeste 0 -- -- 91
2018-06-25 21:00:00 21.5 14 Oeste 22 Sudoeste 0 -- -- 88
2018-06-25 20:00:00 23.2 17 Sudoeste 20 Sudoeste 0 -- -- 81
2018-06-25 19:00:00 24 16 Sudoeste 21 Sudoeste 0 -- -- 78
2018-06-25 18:00:00 23.6 17 Sudoeste 21 Sudoeste 0 -- -- 79
2018-06-25 17:00:00 24.3 16 Sudoeste 21 Sudoeste 0 -- -- 75
2018-06-25 16:00:00 23.9 17 Sudoeste 24 Oeste 0 -- -- 75
2018-06-25 15:00:00 23.1 20 Oeste 27 Oeste 0 -- -- 76
2018-06-25 14:00:00 22.6 21 Oeste 25 Oeste 0 -- -- 79
2018-06-25 13:00:00 23.4 16 Sudoeste 19 Oeste 0 -- -- 75
2018-06-25 12:00:00 23 13 Sudoeste 15 Sudoeste 0 -- -- 79
2018-06-25 11:00:00 22.6 9 Sudoeste 11 Sudoeste 0 -- -- 82
2018-06-25 10:00:00 21.6 8 Sudoeste 10 Sudoeste 0 -- -- 89
2018-06-25 09:00:00 20.7 9 Sudoeste 10 Sudoeste 0 -- -- 91
2018-06-25 08:00:00 20.4 6 Sur 10 Sur 0 -- -- 92
2018-06-25 07:00:00 20.5 7 Sur 9 Sur 0 -- -- 91
2018-06-25 06:00:00 20.4 5 Sudoeste 8 Sudoeste 0 -- -- 89
2018-06-25 05:00:00 20.2 7 Oeste 16 Oeste 0 -- -- 89
2018-06-25 04:00:00 20.4 10 Oeste 16 Oeste 0 -- -- 90
2018-06-25 03:00:00 20.6 8 Sudoeste 13 Sur 0 -- -- 90
2018-06-25 02:00:00 20.7 10 Sur 13 Sur 0 -- -- 91
2018-06-25 01:00:00 20.8 9 Sur 11 Sudoeste 0 -- -- 90
2018-06-25 00:00:00 20.9 6 Sudoeste 12 Sudoeste 0 -- -- 88
2018-06-24 23:00:00 21 8 Oeste 14 Oeste 0 -- -- 87
2018-06-24 22:00:00 21.1 10 Oeste 20 Oeste 0 -- -- 87
2018-06-24 21:00:00 22.1 15 Oeste 27 Oeste 0 -- -- 82
2018-06-24 20:00:00 22.5 20 Oeste 32 Oeste 0 -- -- 84
2018-06-24 19:00:00 22.7 28 Oeste 35 Oeste 0 -- -- 86
2018-06-24 18:00:00 23 27 Oeste 36 Oeste 0 -- -- 86
2018-06-24 17:00:00 22.9 29 Oeste 36 Oeste 0 -- -- 86
2018-06-24 16:00:00 26.1 25 Sur 42 Sur 0 -- -- 72
2018-06-24 15:00:00 26.1 33 Sur 40 Sur 0 -- -- 71
2018-06-24 14:00:00 24.9 26 Sur 39 Sur 0 -- -- 76
2018-06-24 13:00:00 24.4 19 Sudoeste 27 Sur 0 -- -- 79
2018-06-24 12:00:00 23.5 21 Sudoeste 28 Sudoeste 0 -- -- 82
2018-06-24 11:00:00 23.5 12 Sudoeste 19 Sudoeste 0 -- -- 80
2018-06-24 10:00:00 22.7 5 Sudoeste 8 Sudoeste 0 -- -- 86
2018-06-24 09:00:00 21.5 6 Sudoeste 12 Sudoeste 0 -- -- 91
2018-06-24 08:00:00 20.9 10 Sudoeste 15 Sudoeste 0 -- -- 92
2018-06-24 07:00:00 21.2 4 Sur 20 Sudeste 0 -- -- 90
2018-06-24 06:00:00 20.4 7 Este 12 Sudeste 0 -- -- 87
2018-06-24 05:00:00 21.2 4 Sudeste 12 Sur 0 -- -- 87
2018-06-24 04:00:00 21.5 6 Sudoeste 15 Oeste 0 -- -- 85
2018-06-24 03:00:00 21.5 11 Oeste 18 Oeste 0 -- -- 81
2018-06-24 02:00:00 21.6 12 Oeste 17 Oeste 0 -- -- 84
2018-06-24 01:00:00 23.7 12 Este 33 Sudeste 0 -- -- 71
2018-06-24 00:00:00 21.8 9 Sudoeste 19 Nordeste 0 -- -- 84
2018-06-23 23:00:00 23.7 15 Este 26 Este 0 -- -- 67
2018-06-23 22:00:00 24.2 12 Nordeste 22 Este 0 -- -- 65
2018-06-23 21:00:00 26.8 4 Oeste 35 Nordeste 0 -- -- 61
2018-06-23 20:00:00 27.7 26 Nordeste 44 Este 0 -- -- 50
2018-06-23 19:00:00 29.4 27 Este 47 Este 0 -- -- 47
2018-06-23 18:00:00 30.4 30 Este 52 Este 0 -- -- 43
2018-06-23 17:00:00 30.4 30 Este 50 Este 0 -- -- 45
2018-06-23 16:00:00 30.8 26 Este 45 Este 0 -- -- 45
2018-06-23 15:00:00 29.9 26 Este 44 Este 0 -- -- 50
2018-06-23 14:00:00 28.5 19 Sudeste 40 Este 0 -- -- 60
2018-06-23 13:00:00 23.9 17 Oeste 20 Oeste 0 -- -- 72
2018-06-23 12:00:00 23.2 12 Sudoeste 17 Sudoeste 0 -- -- 78
2018-06-23 11:00:00 22.4 13 Sudoeste 19 Oeste 0 -- -- 82
2018-06-23 10:00:00 23.1 6 Norte 12 Norte 0 -- -- 71
2018-06-23 09:00:00 20.4 6 Norte 12 Norte 0 -- -- 88
2018-06-23 08:00:00 17.9 7 Norte 12 Norte 0 -- -- 95
2018-06-23 07:00:00 17.8 6 Nordeste 12 Nordeste 0 -- -- 95
2018-06-23 06:00:00 18.3 6 Nordeste 9 Nordeste 0 -- -- 92
2018-06-23 05:00:00 19 6 Nordeste 9 Sur 0 -- -- 90
2018-06-23 04:00:00 20.1 5 Sudoeste 12 Oeste 0 -- -- 89
2018-06-23 03:00:00 20.1 10 Oeste 18 Oeste 0 -- -- 87
2018-06-23 02:00:00 20.4 8 Oeste 18 Oeste 0 -- -- 85
2018-06-23 01:00:00 20.7 8 Oeste 13 Oeste 0 -- -- 80
2018-06-23 00:00:00 21.2 7 Oeste 14 Oeste 0 -- -- 82
2018-06-22 23:00:00 21.7 8 Oeste 11 Sudoeste 0 -- -- 81
2018-06-22 22:00:00 23.7 5 Sudoeste 8 Sudoeste 0 -- -- 73
2018-06-22 21:00:00 26.2 4 Sudoeste 10 Oeste 0 -- -- 64
2018-06-22 20:00:00 26.8 8 Sudoeste 14 Oeste 0 -- -- 67
2018-06-22 19:00:00 25.9 10 Oeste 21 Oeste 0 -- -- 67
2018-06-22 18:00:00 24.8 18 Oeste 25 Oeste 0 -- -- 77
2018-06-22 17:00:00 24.4 17 Oeste 26 Oeste 0 -- -- 76
2018-06-22 16:00:00 23.7 23 Oeste 27 Oeste 0 -- -- 82
2018-06-22 15:00:00 24.2 15 Oeste 21 Oeste 0 -- -- 75
2018-06-22 14:00:00 24 14 Oeste 17 Oeste 0 -- -- 81
2018-06-22 13:00:00 23.6 14 Sudoeste 17 Sudoeste 0 -- -- 83
2018-06-22 12:00:00 23.1 12 Oeste 15 Oeste 0 -- -- 86
2018-06-22 11:00:00 23.7 6 Sudoeste 8 Sudoeste 0 -- -- 82
2018-06-22 10:00:00 22.1 5 Oeste 8 Oeste 0 -- -- 89
2018-06-22 09:00:00 20 5 Norte 9 Norte 0 -- -- 97
2018-06-22 08:00:00 18.9 6 Nordeste 10 Este 0 -- -- 98
2018-06-22 07:00:00 19.1 4 Norte 9 Norte 0 -- -- 96
2018-06-22 06:00:00 19.6 3 Nordeste 6 Norte 0 -- -- 94
2018-06-22 05:00:00 20 2 Oeste 11 Sudeste 0 -- -- 94
2018-06-22 04:00:00 20 7 Sudeste 13 Sur 0 -- -- 93
2018-06-22 03:00:00 20.1 11 Sur 23 Sur 0 -- -- 93
2018-06-22 02:00:00 20.2 20 Sur 29 Sur 0.4 -- -- 93
2018-06-22 01:00:00 20.6 25 Sur 30 Sur 0 -- -- 89
2018-06-22 00:00:00 22 11 Sudeste 17 Este 0 -- -- 78
2018-06-21 23:00:00 22.8 13 Este 24 Este 0 -- -- 71
2018-06-21 22:00:00 23.5 16 Este 28 Este 0 -- -- 67
2018-06-21 21:00:00 25.3 23 Este 33 Este 0 -- -- 60
2018-06-21 20:00:00 27 23 Este 35 Este 0 -- -- 54
2018-06-21 19:00:00 28.2 21 Este 37 Este 0 -- -- 51
2018-06-21 18:00:00 29 19 Este 35 Este 0 -- -- 51
2018-06-21 17:00:00 26.3 25 Sudeste 39 Sudeste 0 -- -- 65
2018-06-21 16:00:00 25.3 31 Sur 43 Sur 0 -- -- 70
2018-06-21 15:00:00 25 31 Sur 39 Sur 0 -- -- 71
2018-06-21 14:00:00 24.5 28 Sur 37 Sur 0 -- -- 74
2018-06-21 13:00:00 24.1 21 Sur 27 Sur 0 -- -- 76
2018-06-21 12:00:00 24 18 Sur 24 Sur 0 -- -- 77
2018-06-21 11:00:00 23.1 6 Noroeste 12 Oeste 0 -- -- 79
2018-06-21 10:00:00 22.6 7 Sur 32 Sur 0 -- -- 83
2018-06-21 09:00:00 20.6 14 Oeste 41 Sur 0 -- -- 86
2018-06-21 08:00:00 21.8 12 Norte 39 Oeste 0 -- -- 68
2018-06-21 07:00:00 20.4 12 Sudoeste 53 Este 0.2 -- -- 81
2018-06-21 06:00:00 20 16 Nordeste 40 Este 0.4 -- -- 83
2018-06-21 05:00:00 20.6 33 Este 46 Este 1.2 -- -- 82
2018-06-21 04:00:00 20 21 Sudeste 37 Sur 0 -- -- 90
2018-06-21 03:00:00 20.2 12 Sur 37 Nordeste 0 -- -- 88
2018-06-21 02:00:00 21.3 14 Norte 45 Nordeste 0 -- -- 80
2018-06-21 01:00:00 21 14 Norte 34 Nordeste 0.6 -- -- 85
2018-06-21 00:00:00 21.5 23 Nordeste 33 Nordeste 0 -- -- 79
2018-06-20 23:00:00 21.8 22 Nordeste 28 Nordeste 0 -- -- 79
2018-06-20 22:00:00 22.8 17 Nordeste 29 Este 0 -- -- 71
2018-06-20 21:00:00 25 19 Este 33 Nordeste 0 -- -- 63
2018-06-20 20:00:00 26.3 24 Este 38 Este 0 -- -- 61
2018-06-20 19:00:00 27.4 23 Este 38 Este 0 -- -- 57
2018-06-20 18:00:00 28.4 18 Sudeste 41 Este 0 -- -- 56
2018-06-20 17:00:00 28.3 29 Este 44 Este 0 -- -- 55
2018-06-20 16:00:00 29.1 23 Este 43 Sudeste 0 -- -- 51
2018-06-20 15:00:00 28.1 20 Este 40 Este 0 -- -- 55
2018-06-20 14:00:00 27.4 30 Este 49 Este 0 -- -- 54
2018-06-20 13:00:00 26.5 22 Sudeste 44 Nordeste 0 -- -- 61
2018-06-20 12:00:00 26.6 17 Sudeste 50 Sudeste 0 -- -- 58
2018-06-20 11:00:00 26.5 13 Sudeste 43 Este 0 -- -- 59
2018-06-20 10:00:00 24.8 27 Este 52 Este 0 -- -- 64
2018-06-20 09:00:00 21.9 11 Sudeste 51 Nordeste 0 -- -- 75
2018-06-20 08:00:00 21.6 22 Nordeste 36 Nordeste 0 -- -- 77
2018-06-20 07:00:00 20.9 27 Sudeste 42 Sudeste 0 -- -- 81
2018-06-20 06:00:00 21.1 10 Nordeste 44 Este 0 -- -- 78
2018-06-20 05:00:00 21.4 31 Este 49 Este 0 -- -- 76
2018-06-20 04:00:00 21.7 20 Este 39 Este 0 -- -- 74
2018-06-20 03:00:00 21.7 17 Nordeste 37 Este 0 -- -- 74
2018-06-20 02:00:00 21.8 19 Este 58 Este 0 -- -- 73
2018-06-20 01:00:00 22.1 32 Este 76 Sudeste 0 -- -- 72
2018-06-20 00:00:00 22.7 52 Sudeste 78 Sudeste 0 -- -- 65
2018-06-19 23:00:00 22.7 9 Nordeste 27 Noroeste 0 -- -- 64
2018-06-19 22:00:00 22.8 9 Norte 33 Este 0 -- -- 65
2018-06-19 21:00:00 24.4 18 Nordeste 63 Este 0 -- -- 58
2018-06-19 20:00:00 26 37 Sudeste 70 Sudeste 0 -- -- 53
2018-06-19 19:00:00 26.9 48 Sudeste 82 Sudeste 0 -- -- 52
2018-06-19 18:00:00 27.5 47 Sudeste 76 Sudeste 0 -- -- 52
2018-06-19 17:00:00 28.2 39 Sudeste 68 Sudeste 0 -- -- 52
2018-06-19 16:00:00 28.1 41 Sudeste 70 Sudeste 0 -- -- 53
2018-06-19 15:00:00 27.6 47 Sudeste 79 Sudeste 0 -- -- 53
2018-06-19 14:00:00 27.5 46 Sudeste 70 Sudeste 0 -- -- 55
2018-06-19 13:00:00 27.3 23 Este -- -- -- -- -- 54
2018-06-19 12:00:00 -- -- -- -- -- -- -- -- --
2018-06-19 11:00:00 26.4 10 Este 40 Sudeste 0 -- -- 60
2018-06-19 10:00:00 24.8 18 Este 32 Este 0 -- -- 63
2018-06-19 09:00:00 23.2 9 Nordeste 23 Este 0 -- -- 70
2018-06-19 08:00:00 21.8 10 Nordeste 30 Nordeste 0 -- -- 72
2018-06-19 07:00:00 21.5 14 Nordeste 23 Nordeste 0 -- -- 70
2018-06-19 06:00:00 22.2 8 Nordeste 34 Este 0 -- -- 67
2018-06-19 05:00:00 22.1 21 Este 30 Este 0 -- -- 66
2018-06-19 04:00:00 20.6 5 Nordeste 13 Este 0 -- -- 75
2018-06-19 03:00:00 20.7 12 Sur 21 Este 0 -- -- 79
2018-06-19 02:00:00 21.1 5 Sudeste 22 Sudeste 0 -- -- 76
2018-06-19 01:00:00 21.2 13 Sur 18 Sudeste 0 -- -- 78
2018-06-19 00:00:00 21.5 19 Sudeste 28 Sudeste 0 -- -- 76
2018-06-18 23:00:00 22.3 8 Sudeste 22 Sudeste 0 -- -- 64
2018-06-18 22:00:00 22.7 15 Sudeste 28 Sur 0 -- -- 65
2018-06-18 21:00:00 24.2 24 Sur 35 Sudeste 0 -- -- 59
2018-06-18 20:00:00 23.7 31 Sur 41 Sur 0 -- -- 69
2018-06-18 19:00:00 25.5 30 Sur 40 Sur 0 -- -- 67
2018-06-18 18:00:00 27.2 21 Sur 36 Este 0 -- -- 62
2018-06-18 17:00:00 29.9 25 Este 42 Este 0 -- -- 47
2018-06-18 16:00:00 25.5 24 Sur 42 Sur 0 -- -- 70
2018-06-18 15:00:00 23.5 37 Sur 48 Sur 0 -- -- 79
2018-06-18 14:00:00 24.4 34 Sur 54 Sur 0 -- -- 75
2018-06-18 13:00:00 28.9 17 Nordeste 46 Nordeste 0 -- -- 53
2018-06-18 12:00:00 29.4 9 Sudeste 44 Este 0 -- -- 43
2018-06-18 11:00:00 27.7 18 Nordeste 37 Este 0 -- -- 46
2018-06-18 10:00:00 26.8 12 Norte 30 Nordeste 0 -- -- 44
2018-06-18 09:00:00 25.1 12 Nordeste 22 Nordeste 0 -- -- 46
2018-06-18 08:00:00 23.7 9 Norte 32 Nordeste 0 -- -- 51
2018-06-18 07:00:00 23.5 15 Este 36 Este 0 -- -- 50
2018-06-18 06:00:00 22.4 17 Este 34 Este 0 -- -- 59
2018-06-18 05:00:00 22.7 26 Este 45 Este 0 -- -- 63
2018-06-18 04:00:00 22.5 27 Este 50 Este 0 -- -- 69
2018-06-18 03:00:00 22.3 26 Este 53 Este 0 -- -- 71
2018-06-18 02:00:00 23.9 26 Este 46 Este 0 -- -- 57
2018-06-18 01:00:00 24.1 19 Este 47 Este 0 -- -- 53
2018-06-18 00:00:00 24.7 31 Nordeste 48 Nordeste 0 -- -- 51
2018-06-17 23:00:00 23.7 17 Este 32 Este 0 -- -- 59
2018-06-17 22:00:00 24.7 17 Este 27 Este 0 -- -- 53
2018-06-17 21:00:00 26.1 15 Nordeste 32 Nordeste 0 -- -- 50
2018-06-17 20:00:00 28 14 Este 29 Nordeste 0 -- -- 42
2018-06-17 19:00:00 29.3 13 Este 45 Este 0 -- -- 36
2018-06-17 18:00:00 29.8 30 Este 45 Este 0 -- -- 37
2018-06-17 17:00:00 31.6 22 Este 39 Este 0 -- -- 37
2018-06-17 16:00:00 31.1 26 Este 44 Este 0 -- -- 37
2018-06-17 15:00:00 30.7 25 Este 45 Este 0 -- -- 37
2018-06-17 14:00:00 30.4 29 Este 51 Este 0 -- -- 36
2018-06-17 13:00:00 29.8 23 Este 41 Este 0 -- -- 37
2018-06-17 12:00:00 28.7 27 Este 37 Este 0 -- -- 40
2018-06-17 11:00:00 27.2 17 Este 27 Este 0 -- -- 45
2018-06-17 10:00:00 24.3 16 Este 24 Este 0 -- -- 55
2018-06-17 09:00:00 19.7 5 Norte 9 Norte 0 -- -- 78
2018-06-17 08:00:00 17.4 2 Nordeste 10 Nordeste 0 -- -- 95
2018-06-17 07:00:00 17.4 6 Norte 15 Oeste 0 -- -- 95
2018-06-17 06:00:00 18.4 9 Sudoeste 18 Oeste 0 -- -- 95
2018-06-17 05:00:00 18.8 15 Oeste 19 Oeste 0 -- -- 95
2018-06-17 04:00:00 19.1 8 Sudeste 13 Sur 0 -- -- 86
2018-06-17 03:00:00 19.7 9 Oeste 11 Oeste 0 -- -- 71
2018-06-17 02:00:00 20.8 7 Sudoeste 18 Sudoeste 0 -- -- 75
2018-06-17 01:00:00 22.1 5 Nordeste 26 Nordeste 0 -- -- 52
2018-06-17 00:00:00 22 16 Nordeste 21 Nordeste 0 -- -- 54